sensor_id;sensor_type;location;lat;lon;timestamp;P1;P2;P0
69346;PMS5003;56494;43.536;5.048;2022-07-24T00:00:40;20.00;17.60;11.60
69346;PMS5003;56494;43.536;5.048;2022-07-24T00:03:07;20.00;20.00;14.00
69346;PMS5003;56494;43.536;5.048;2022-07-24T00:05:34;35.75;19.25;14.00
69346;PMS5003;56494;43.536;5.048;2022-07-24T00:08:00;18.40;18.40;13.00
69346;PMS5003;56494;43.536;5.048;2022-07-24T00:10:27;21.50;19.00;11.50
69346;PMS5003;56494;43.536;5.048;2022-07-24T00:12:54;24.00;17.50;12.50
69346;PMS5003;56494;43.536;5.048;2022-07-24T00:15:20;18.80;15.80;11.80
69346;PMS5003;56494;43.536;5.048;2022-07-24T00:17:47;19.00;19.00;13.20
69346;PMS5003;56494;43.536;5.048;2022-07-24T00:20:14;26.80;20.00;13.00
69346;PMS5003;56494;43.536;5.048;2022-07-24T00:22:40;23.40;19.00;13.00
69346;PMS5003;56494;43.536;5.048;2022-07-24T00:25:08;34.50;19.25;12.25
69346;PMS5003;56494;43.536;5.048;2022-07-24T00:27:35;20.40;19.40;13.00
69346;PMS5003;56494;43.536;5.048;2022-07-24T00:30:02;26.00;22.00;15.00
69346;PMS5003;56494;43.536;5.048;2022-07-24T00:32:29;23.00;19.00;13.25
69346;PMS5003;56494;43.536;5.048;2022-07-24T00:34:55;26.00;22.75;16.75
69346;PMS5003;56494;43.536;5.048;2022-07-24T00:37:22;36.00;18.00;13.00
69346;PMS5003;56494;43.536;5.048;2022-07-24T00:39:49;25.00;20.00;14.00
69346;PMS5003;56494;43.536;5.048;2022-07-24T00:42:15;17.00;17.00;12.75
69346;PMS5003;56494;43.536;5.048;2022-07-24T00:44:42;23.60;20.40;12.60
69346;PMS5003;56494;43.536;5.048;2022-07-24T00:47:08;20.40;18.40;12.60
69346;PMS5003;56494;43.536;5.048;2022-07-24T00:49:36;21.80;15.80;13.00
69346;PMS5003;56494;43.536;5.048;2022-07-24T00:52:02;20.80;18.00;14.00
69346;PMS5003;56494;43.536;5.048;2022-07-24T00:54:30;20.50;19.50;14.00
69346;PMS5003;56494;43.536;5.048;2022-07-24T00:56:57;22.40;19.40;14.00
69346;PMS5003;56494;43.536;5.048;2022-07-24T00:59:24;19.75;18.00;14.00
69346;PMS5003;56494;43.536;5.048;2022-07-24T01:01:51;36.00;21.00;15.00
69346;PMS5003;56494;43.536;5.048;2022-07-24T01:04:18;19.40;18.40;14.40
69346;PMS5003;56494;43.536;5.048;2022-07-24T01:06:45;18.00;16.60;13.00
69346;PMS5003;56494;43.536;5.048;2022-07-24T01:09:12;20.75;19.00;12.00
69346;PMS5003;56494;43.536;5.048;2022-07-24T01:11:39;22.60;20.20;14.20
69346;PMS5003;56494;43.536;5.048;2022-07-24T01:14:05;20.50;18.50;13.75
69346;PMS5003;56494;43.536;5.048;2022-07-24T01:16:35;22.40;20.40;13.00
69346;PMS5003;56494;43.536;5.048;2022-07-24T01:19:02;20.60;17.60;13.60
69346;PMS5003;56494;43.536;5.048;2022-07-24T01:21:29;17.33;17.33;13.33
69346;PMS5003;56494;43.536;5.048;2022-07-24T01:23:56;18.00;18.00;14.00
69346;PMS5003;56494;43.536;5.048;2022-07-24T01:26:23;23.40;19.60;13.00
69346;PMS5003;56494;43.536;5.048;2022-07-24T01:28:49;17.20;17.20;12.60
69346;PMS5003;56494;43.536;5.048;2022-07-24T01:31:16;21.50;17.00;12.00
69346;PMS5003;56494;43.536;5.048;2022-07-24T01:33:43;20.60;18.60;12.60
69346;PMS5003;56494;43.536;5.048;2022-07-24T01:36:09;18.50;17.75;12.00
69346;PMS5003;56494;43.536;5.048;2022-07-24T01:38:36;19.20;18.20;13.20
69346;PMS5003;56494;43.536;5.048;2022-07-24T01:41:03;18.80;17.80;12.00
69346;PMS5003;56494;43.536;5.048;2022-07-24T01:43:29;24.20;17.60;12.60
69346;PMS5003;56494;43.536;5.048;2022-07-24T01:45:56;22.60;21.00;16.00
69346;PMS5003;56494;43.536;5.048;2022-07-24T01:48:23;18.00;18.00;13.50
69346;PMS5003;56494;43.536;5.048;2022-07-24T01:50:49;21.33;17.67;11.67
69346;PMS5003;56494;43.536;5.048;2022-07-24T01:53:16;20.80;19.60;13.00
69346;PMS5003;56494;43.536;5.048;2022-07-24T01:55:43;18.00;17.00;12.50
69346;PMS5003;56494;43.536;5.048;2022-07-24T01:58:09;24.80;19.60;13.40
69346;PMS5003;56494;43.536;5.048;2022-07-24T02:00:36;19.20;18.20;13.20
69346;PMS5003;56494;43.536;5.048;2022-07-24T02:03:03;21.20;17.40;12.80
69346;PMS5003;56494;43.536;5.048;2022-07-24T02:05:29;28.20;19.40;13.00
69346;PMS5003;56494;43.536;5.048;2022-07-24T02:07:57;26.40;19.40;14.00
69346;PMS5003;56494;43.536;5.048;2022-07-24T02:10:24;23.75;16.75;12.00
69346;PMS5003;56494;43.536;5.048;2022-07-24T02:12:51;23.00;21.25;14.50
69346;PMS5003;56494;43.536;5.048;2022-07-24T02:15:18;23.50;18.00;13.00
69346;PMS5003;56494;43.536;5.048;2022-07-24T02:17:51;24.50;19.50;14.00
69346;PMS5003;56494;43.536;5.048;2022-07-24T02:20:18;28.00;18.20;14.00
69346;PMS5003;56494;43.536;5.048;2022-07-24T02:22:45;19.50;17.50;12.75
69346;PMS5003;56494;43.536;5.048;2022-07-24T02:25:12;18.00;18.00;12.40
69346;PMS5003;56494;43.536;5.048;2022-07-24T02:27:39;15.80;15.60;12.60
69346;PMS5003;56494;43.536;5.048;2022-07-24T02:30:07;31.50;19.50;12.75
69346;PMS5003;56494;43.536;5.048;2022-07-24T02:32:34;21.40;19.60;14.40
69346;PMS5003;56494;43.536;5.048;2022-07-24T02:35:01;17.50;17.50;14.00
69346;PMS5003;56494;43.536;5.048;2022-07-24T02:37:32;20.20;19.00;12.20
69346;PMS5003;56494;43.536;5.048;2022-07-24T02:39:58;21.20;19.20;14.00
69346;PMS5003;56494;43.536;5.048;2022-07-24T02:42:25;34.25;17.75;14.00
69346;PMS5003;56494;43.536;5.048;2022-07-24T02:44:52;36.75;18.25;13.75
69346;PMS5003;56494;43.536;5.048;2022-07-24T02:47:18;19.40;18.00;12.40
69346;PMS5003;56494;43.536;5.048;2022-07-24T02:49:45;20.40;19.40;13.00
69346;PMS5003;56494;43.536;5.048;2022-07-24T02:52:11;17.40;17.40;12.80
69346;PMS5003;56494;43.536;5.048;2022-07-24T02:54:38;18.80;16.40;13.40
69346;PMS5003;56494;43.536;5.048;2022-07-24T02:57:05;18.00;17.00;12.00
69346;PMS5003;56494;43.536;5.048;2022-07-24T02:59:32;19.60;18.60;12.80
69346;PMS5003;56494;43.536;5.048;2022-07-24T03:01:58;21.00;18.20;14.00
69346;PMS5003;56494;43.536;5.048;2022-07-24T03:04:25;37.50;17.00;12.50
69346;PMS5003;56494;43.536;5.048;2022-07-24T03:06:52;27.00;21.20;14.80
69346;PMS5003;56494;43.536;5.048;2022-07-24T03:09:19;19.20;17.00;12.00
69346;PMS5003;56494;43.536;5.048;2022-07-24T03:11:45;22.00;16.00;12.00
69346;PMS5003;56494;43.536;5.048;2022-07-24T03:14:12;32.50;20.50;12.75
69346;PMS5003;56494;43.536;5.048;2022-07-24T03:16:38;16.00;16.00;11.60
69346;PMS5003;56494;43.536;5.048;2022-07-24T03:19:05;21.50;19.00;13.50
69346;PMS5003;56494;43.536;5.048;2022-07-24T03:21:32;21.20;19.20;14.00
69346;PMS5003;56494;43.536;5.048;2022-07-24T03:24:13;24.75;19.75;13.75
69346;PMS5003;56494;43.536;5.048;2022-07-24T03:26:39;19.20;18.00;12.80
69346;PMS5003;56494;43.536;5.048;2022-07-24T03:29:06;32.50;20.75;14.00
69346;PMS5003;56494;43.536;5.048;2022-07-24T03:31:33;28.75;19.75;14.50
69346;PMS5003;56494;43.536;5.048;2022-07-24T03:34:00;21.00;18.00;15.00
69346;PMS5003;56494;43.536;5.048;2022-07-24T03:36:27;36.50;18.50;14.50
69346;PMS5003;56494;43.536;5.048;2022-07-24T03:38:54;25.40;18.80;12.40
69346;PMS5003;56494;43.536;5.048;2022-07-24T03:41:21;34.00;19.75;13.50
69346;PMS5003;56494;43.536;5.048;2022-07-24T03:43:48;17.50;17.50;13.00
69346;PMS5003;56494;43.536;5.048;2022-07-24T03:46:15;22.50;19.50;13.75
69346;PMS5003;56494;43.536;5.048;2022-07-24T03:48:42;21.00;18.40;12.40
69346;PMS5003;56494;43.536;5.048;2022-07-24T03:51:08;22.50;20.00;12.00
69346;PMS5003;56494;43.536;5.048;2022-07-24T03:53:35;19.00;17.40;13.00
69346;PMS5003;56494;43.536;5.048;2022-07-24T03:56:08;22.00;20.25;14.50
69346;PMS5003;56494;43.536;5.048;2022-07-24T03:58:35;28.40;18.00;13.80
69346;PMS5003;56494;43.536;5.048;2022-07-24T04:01:05;18.00;18.00;13.00
69346;PMS5003;56494;43.536;5.048;2022-07-24T04:03:32;27.00;19.00;13.75
69346;PMS5003;56494;43.536;5.048;2022-07-24T04:06:05;26.00;23.00;14.00
69346;PMS5003;56494;43.536;5.048;2022-07-24T04:08:32;18.75;17.25;13.75
69346;PMS5003;56494;43.536;5.048;2022-07-24T04:10:59;24.25;20.50;13.25
69346;PMS5003;56494;43.536;5.048;2022-07-24T04:13:27;19.60;18.00;13.60
69346;PMS5003;56494;43.536;5.048;2022-07-24T04:15:54;24.80;20.40;14.00
69346;PMS5003;56494;43.536;5.048;2022-07-24T04:18:24;23.50;19.75;12.50
69346;PMS5003;56494;43.536;5.048;2022-07-24T04:20:51;21.60;16.60;12.40
69346;PMS5003;56494;43.536;5.048;2022-07-24T04:23:18;21.20;19.40;12.40
69346;PMS5003;56494;43.536;5.048;2022-07-24T04:25:45;20.40;20.20;14.20
69346;PMS5003;56494;43.536;5.048;2022-07-24T04:28:12;17.60;16.00;12.60
69346;PMS5003;56494;43.536;5.048;2022-07-24T04:30:39;19.40;19.40;14.00
69346;PMS5003;56494;43.536;5.048;2022-07-24T04:33:06;20.40;19.40;13.40
69346;PMS5003;56494;43.536;5.048;2022-07-24T04:35:32;20.60;18.60;13.00
69346;PMS5003;56494;43.536;5.048;2022-07-24T04:37:59;19.50;18.00;14.50
69346;PMS5003;56494;43.536;5.048;2022-07-24T04:40:26;20.50;17.00;13.00
69346;PMS5003;56494;43.536;5.048;2022-07-24T04:42:52;17.00;17.00;11.00
69346;PMS5003;56494;43.536;5.048;2022-07-24T04:45:19;30.60;19.00;15.00
69346;PMS5003;56494;43.536;5.048;2022-07-24T04:47:45;33.20;19.60;13.00
69346;PMS5003;56494;43.536;5.048;2022-07-24T04:50:12;17.20;16.40;12.40
69346;PMS5003;56494;43.536;5.048;2022-07-24T04:52:40;17.00;17.00;12.75
69346;PMS5003;56494;43.536;5.048;2022-07-24T04:55:07;19.60;19.00;14.00
69346;PMS5003;56494;43.536;5.048;2022-07-24T04:57:34;18.00;17.50;14.00
69346;PMS5003;56494;43.536;5.048;2022-07-24T05:00:00;31.80;16.00;12.60
69346;PMS5003;56494;43.536;5.048;2022-07-24T05:02:27;17.80;16.40;11.40
69346;PMS5003;56494;43.536;5.048;2022-07-24T05:04:54;32.20;17.40;13.40
69346;PMS5003;56494;43.536;5.048;2022-07-24T05:07:20;17.40;16.60;10.60
69346;PMS5003;56494;43.536;5.048;2022-07-24T05:09:47;31.20;16.00;13.00
69346;PMS5003;56494;43.536;5.048;2022-07-24T05:12:13;34.25;18.25;13.25
69346;PMS5003;56494;43.536;5.048;2022-07-24T05:14:42;17.00;15.50;12.00
69346;PMS5003;56494;43.536;5.048;2022-07-24T05:17:08;16.00;14.75;11.00
69346;PMS5003;56494;43.536;5.048;2022-07-24T05:19:35;26.00;16.50;13.00
69346;PMS5003;56494;43.536;5.048;2022-07-24T05:22:04;17.60;15.60;11.00
69346;PMS5003;56494;43.536;5.048;2022-07-24T05:24:31;18.00;18.00;13.50
69346;PMS5003;56494;43.536;5.048;2022-07-24T05:26:57;18.20;17.00;13.00
69346;PMS5003;56494;43.536;5.048;2022-07-24T05:29:24;15.60;15.60;11.60
69346;PMS5003;56494;43.536;5.048;2022-07-24T05:31:51;24.25;15.00;11.00
69346;PMS5003;56494;43.536;5.048;2022-07-24T05:34:21;14.80;14.80;11.80
69346;PMS5003;56494;43.536;5.048;2022-07-24T05:36:48;16.20;14.80;9.80
69346;PMS5003;56494;43.536;5.048;2022-07-24T05:39:15;20.75;14.25;11.25
69346;PMS5003;56494;43.536;5.048;2022-07-24T05:41:41;17.00;15.80;10.60
69346;PMS5003;56494;43.536;5.048;2022-07-24T05:44:08;17.50;16.50;11.00
69346;PMS5003;56494;43.536;5.048;2022-07-24T05:46:35;33.00;16.80;12.80
69346;PMS5003;56494;43.536;5.048;2022-07-24T05:49:02;16.60;16.60;12.00
69346;PMS5003;56494;43.536;5.048;2022-07-24T05:51:29;19.20;15.60;10.60
69346;PMS5003;56494;43.536;5.048;2022-07-24T05:53:56;23.00;15.60;11.60
69346;PMS5003;56494;43.536;5.048;2022-07-24T05:56:22;14.00;13.00;10.40
69346;PMS5003;56494;43.536;5.048;2022-07-24T05:58:50;20.00;17.00;12.40
69346;PMS5003;56494;43.536;5.048;2022-07-24T06:01:16;31.00;15.20;11.80
69346;PMS5003;56494;43.536;5.048;2022-07-24T06:03:43;14.60;14.40;10.40
69346;PMS5003;56494;43.536;5.048;2022-07-24T06:06:10;15.50;15.50;11.25
69346;PMS5003;56494;43.536;5.048;2022-07-24T06:08:37;15.20;15.00;11.60
69346;PMS5003;56494;43.536;5.048;2022-07-24T06:11:04;15.40;14.40;10.80
69346;PMS5003;56494;43.536;5.048;2022-07-24T06:13:31;15.60;14.20;10.00
69346;PMS5003;56494;43.536;5.048;2022-07-24T06:15:57;15.50;13.00;10.50
69346;PMS5003;56494;43.536;5.048;2022-07-24T06:18:24;13.33;13.33;10.00
69346;PMS5003;56494;43.536;5.048;2022-07-24T06:20:51;15.80;15.80;10.00
69346;PMS5003;56494;43.536;5.048;2022-07-24T06:23:18;17.60;16.00;11.60
69346;PMS5003;56494;43.536;5.048;2022-07-24T06:25:47;17.40;14.80;9.60
69346;PMS5003;56494;43.536;5.048;2022-07-24T06:28:14;24.00;16.00;10.00
69346;PMS5003;56494;43.536;5.048;2022-07-24T06:30:41;11.00;11.00;8.40
69346;PMS5003;56494;43.536;5.048;2022-07-24T06:33:07;29.00;14.50;11.00
69346;PMS5003;56494;43.536;5.048;2022-07-24T06:35:34;14.00;14.00;11.00
69346;PMS5003;56494;43.536;5.048;2022-07-24T06:38:01;13.00;13.00;11.00
69346;PMS5003;56494;43.536;5.048;2022-07-24T06:40:27;16.40;15.40;11.00
69346;PMS5003;56494;43.536;5.048;2022-07-24T06:42:55;27.75;12.25;9.75
69346;PMS5003;56494;43.536;5.048;2022-07-24T06:45:21;15.00;15.00;12.00
69346;PMS5003;56494;43.536;5.048;2022-07-24T06:47:49;17.00;15.00;12.00
69346;PMS5003;56494;43.536;5.048;2022-07-24T06:50:16;14.00;13.20;9.60
69346;PMS5003;56494;43.536;5.048;2022-07-24T06:52:42;21.00;17.50;11.00
69346;PMS5003;56494;43.536;5.048;2022-07-24T06:55:09;15.00;15.00;11.00
69346;PMS5003;56494;43.536;5.048;2022-07-24T06:57:36;17.00;15.50;11.00
69346;PMS5003;56494;43.536;5.048;2022-07-24T07:00:04;17.00;14.00;11.00
69346;PMS5003;56494;43.536;5.048;2022-07-24T07:02:31;17.50;16.00;12.50
69346;PMS5003;56494;43.536;5.048;2022-07-24T07:04:58;14.80;14.80;11.00
69346;PMS5003;56494;43.536;5.048;2022-07-24T07:07:25;17.00;17.00;14.00
69346;PMS5003;56494;43.536;5.048;2022-07-24T07:09:51;19.50;16.50;12.00
69346;PMS5003;56494;43.536;5.048;2022-07-24T07:12:18;15.80;15.00;12.00
69346;PMS5003;56494;43.536;5.048;2022-07-24T07:14:44;16.25;16.25;12.00
69346;PMS5003;56494;43.536;5.048;2022-07-24T07:17:11;14.00;14.00;11.00
69346;PMS5003;56494;43.536;5.048;2022-07-24T07:19:38;16.00;16.00;10.00
69346;PMS5003;56494;43.536;5.048;2022-07-24T07:22:04;19.00;18.00;12.40
69346;PMS5003;56494;43.536;5.048;2022-07-24T07:24:31;20.40;16.40;11.00
69346;PMS5003;56494;43.536;5.048;2022-07-24T07:26:58;14.00;14.00;9.80
69346;PMS5003;56494;43.536;5.048;2022-07-24T07:29:24;13.00;13.00;10.75
69346;PMS5003;56494;43.536;5.048;2022-07-24T07:31:56;19.60;17.40;13.40
69346;PMS5003;56494;43.536;5.048;2022-07-24T07:34:22;16.00;14.60;10.00
69346;PMS5003;56494;43.536;5.048;2022-07-24T07:36:49;20.00;16.40;11.00
69346;PMS5003;56494;43.536;5.048;2022-07-24T07:39:15;18.00;17.00;12.25
69346;PMS5003;56494;43.536;5.048;2022-07-24T07:41:42;15.40;15.40;11.00
69346;PMS5003;56494;43.536;5.048;2022-07-24T07:44:09;16.20;15.00;10.40
69346;PMS5003;56494;43.536;5.048;2022-07-24T07:46:35;19.80;18.00;13.00
69346;PMS5003;56494;43.536;5.048;2022-07-24T07:49:05;19.00;17.60;13.60
69346;PMS5003;56494;43.536;5.048;2022-07-24T07:51:33;17.00;17.00;12.00
69346;PMS5003;56494;43.536;5.048;2022-07-24T07:53:59;29.40;14.60;11.60
69346;PMS5003;56494;43.536;5.048;2022-07-24T07:56:26;16.00;16.00;12.00
69346;PMS5003;56494;43.536;5.048;2022-07-24T07:58:54;17.75;16.25;11.25
69346;PMS5003;56494;43.536;5.048;2022-07-24T08:01:26;19.00;15.50;11.00
69346;PMS5003;56494;43.536;5.048;2022-07-24T08:03:53;16.50;16.50;12.00
69346;PMS5003;56494;43.536;5.048;2022-07-24T08:06:19;19.20;16.20;12.00
69346;PMS5003;56494;43.536;5.048;2022-07-24T08:08:49;19.00;18.00;14.00
69346;PMS5003;56494;43.536;5.048;2022-07-24T08:11:16;18.00;16.50;12.00
69346;PMS5003;56494;43.536;5.048;2022-07-24T08:13:43;19.80;19.80;12.00
69346;PMS5003;56494;43.536;5.048;2022-07-24T08:16:09;26.60;18.80;13.80
69346;PMS5003;56494;43.536;5.048;2022-07-24T08:18:36;21.50;19.50;13.50
69346;PMS5003;56494;43.536;5.048;2022-07-24T08:21:03;35.25;18.50;12.00
69346;PMS5003;56494;43.536;5.048;2022-07-24T08:23:30;20.20;16.40;12.00
69346;PMS5003;56494;43.536;5.048;2022-07-24T08:25:56;16.20;16.00;11.00
69346;PMS5003;56494;43.536;5.048;2022-07-24T08:28:23;14.75;14.75;11.50
69346;PMS5003;56494;43.536;5.048;2022-07-24T08:30:50;18.00;15.00;12.00
69346;PMS5003;56494;43.536;5.048;2022-07-24T08:33:17;15.80;14.00;11.40
69346;PMS5003;56494;43.536;5.048;2022-07-24T08:35:44;17.80;14.60;11.00
69346;PMS5003;56494;43.536;5.048;2022-07-24T08:38:10;14.75;13.75;10.00
69346;PMS5003;56494;43.536;5.048;2022-07-24T08:40:37;17.00;16.00;11.00
69346;PMS5003;56494;43.536;5.048;2022-07-24T08:43:05;18.50;16.50;11.00
69346;PMS5003;56494;43.536;5.048;2022-07-24T08:45:41;31.40;18.20;12.00
69346;PMS5003;56494;43.536;5.048;2022-07-24T08:48:09;15.00;15.00;10.80
69346;PMS5003;56494;43.536;5.048;2022-07-24T08:50:37;15.60;15.60;12.60
69346;PMS5003;56494;43.536;5.048;2022-07-24T08:53:04;13.40;13.40;10.60
69346;PMS5003;56494;43.536;5.048;2022-07-24T08:55:31;18.00;16.40;12.00
69346;PMS5003;56494;43.536;5.048;2022-07-24T08:57:58;13.00;13.00;11.00
69346;PMS5003;56494;43.536;5.048;2022-07-24T09:00:26;18.80;16.00;11.40
69346;PMS5003;56494;43.536;5.048;2022-07-24T09:02:53;16.00;16.00;12.00
69346;PMS5003;56494;43.536;5.048;2022-07-24T09:05:19;18.00;16.00;11.00
69346;PMS5003;56494;43.536;5.048;2022-07-24T09:07:50;16.25;16.25;10.50
69346;PMS5003;56494;43.536;5.048;2022-07-24T09:10:31;17.40;16.40;13.00
69346;PMS5003;56494;43.536;5.048;2022-07-24T09:13:00;18.25;17.25;12.25
69346;PMS5003;56494;43.536;5.048;2022-07-24T09:15:44;27.75;17.00;13.00
69346;PMS5003;56494;43.536;5.048;2022-07-24T09:18:24;18.00;15.00;10.50
69346;PMS5003;56494;43.536;5.048;2022-07-24T09:20:53;18.80;16.00;12.40
69346;PMS5003;56494;43.536;5.048;2022-07-24T09:23:20;13.50;13.50;11.25
69346;PMS5003;56494;43.536;5.048;2022-07-24T09:25:50;18.00;16.20;12.20
69346;PMS5003;56494;43.536;5.048;2022-07-24T09:28:17;16.33;15.33;10.67
69346;PMS5003;56494;43.536;5.048;2022-07-24T09:30:46;16.00;16.00;12.00
69346;PMS5003;56494;43.536;5.048;2022-07-24T09:33:15;18.40;16.60;12.00
69346;PMS5003;56494;43.536;5.048;2022-07-24T09:35:43;14.60;14.60;9.60
69346;PMS5003;56494;43.536;5.048;2022-07-24T09:38:11;15.00;15.00;11.00
69346;PMS5003;56494;43.536;5.048;2022-07-24T09:40:39;13.60;13.60;10.00
69346;PMS5003;56494;43.536;5.048;2022-07-24T09:48:21;17.40;15.60;12.60
69346;PMS5003;56494;43.536;5.048;2022-07-24T09:50:49;17.40;17.40;13.40
69346;PMS5003;56494;43.536;5.048;2022-07-24T09:53:19;17.80;16.00;11.40
69346;PMS5003;56494;43.536;5.048;2022-07-24T10:01:16;17.40;16.00;12.00
69346;PMS5003;56494;43.536;5.048;2022-07-24T10:03:43;18.00;16.60;11.00
69346;PMS5003;56494;43.536;5.048;2022-07-24T10:06:11;17.50;16.00;11.00
69346;PMS5003;56494;43.536;5.048;2022-07-24T10:08:39;16.00;16.00;12.00
69346;PMS5003;56494;43.536;5.048;2022-07-24T10:11:06;16.00;16.00;10.00
69346;PMS5003;56494;43.536;5.048;2022-07-24T10:13:33;15.00;15.00;12.00
69346;PMS5003;56494;43.536;5.048;2022-07-24T10:21:09;18.00;16.60;12.00
69346;PMS5003;56494;43.536;5.048;2022-07-24T10:26:16;16.00;15.00;11.00
69346;PMS5003;56494;43.536;5.048;2022-07-24T10:28:52;20.50;18.00;12.25
69346;PMS5003;56494;43.536;5.048;2022-07-24T10:31:23;16.60;14.40;10.40
69346;PMS5003;56494;43.536;5.048;2022-07-24T10:33:52;21.50;16.00;10.00
69346;PMS5003;56494;43.536;5.048;2022-07-24T10:36:25;14.00;14.00;11.00
69346;PMS5003;56494;43.536;5.048;2022-07-24T10:38:55;14.00;14.00;10.60
69346;PMS5003;56494;43.536;5.048;2022-07-24T10:41:24;17.25;15.50;12.25
69346;PMS5003;56494;43.536;5.048;2022-07-24T10:46:57;13.40;13.40;9.00
69346;PMS5003;56494;43.536;5.048;2022-07-24T10:49:33;16.60;15.60;11.00
69346;PMS5003;56494;43.536;5.048;2022-07-24T10:52:00;16.50;15.00;11.50
69346;PMS5003;56494;43.536;5.048;2022-07-24T10:54:26;16.50;16.00;11.00
69346;PMS5003;56494;43.536;5.048;2022-07-24T10:56:54;15.00;15.00;11.00
69346;PMS5003;56494;43.536;5.048;2022-07-24T10:59:37;33.00;16.20;10.00
69346;PMS5003;56494;43.536;5.048;2022-07-24T11:02:24;14.00;14.00;10.00
69346;PMS5003;56494;43.536;5.048;2022-07-24T11:07:36;14.00;12.50;9.00
69346;PMS5003;56494;43.536;5.048;2022-07-24T11:10:04;16.25;15.00;11.50
69346;PMS5003;56494;43.536;5.048;2022-07-24T11:12:40;25.00;15.00;11.00
69346;PMS5003;56494;43.536;5.048;2022-07-24T11:15:12;16.60;16.60;11.60
69346;PMS5003;56494;43.536;5.048;2022-07-24T11:18:12;16.00;16.00;12.00
69346;PMS5003;56494;43.536;5.048;2022-07-24T11:20:38;18.00;15.50;11.00
69346;PMS5003;56494;43.536;5.048;2022-07-24T11:23:17;14.00;13.60;9.00
69346;PMS5003;56494;43.536;5.048;2022-07-24T11:25:48;20.50;16.50;12.50
69346;PMS5003;56494;43.536;5.048;2022-07-24T11:28:15;15.00;14.00;11.00
69346;PMS5003;56494;43.536;5.048;2022-07-24T11:30:42;13.80;13.80;11.00
69346;PMS5003;56494;43.536;5.048;2022-07-24T11:33:10;15.00;15.00;11.00
69346;PMS5003;56494;43.536;5.048;2022-07-24T11:35:37;13.00;13.00;10.00
69346;PMS5003;56494;43.536;5.048;2022-07-24T11:38:05;17.00;17.00;12.00
69346;PMS5003;56494;43.536;5.048;2022-07-24T11:40:35;13.50;13.50;10.50
69346;PMS5003;56494;43.536;5.048;2022-07-24T11:43:03;13.00;12.80;9.80
69346;PMS5003;56494;43.536;5.048;2022-07-24T11:45:36;14.25;14.25;10.00
69346;PMS5003;56494;43.536;5.048;2022-07-24T11:48:02;16.80;14.80;11.00
69346;PMS5003;56494;43.536;5.048;2022-07-24T11:50:29;13.50;13.50;9.50
69346;PMS5003;56494;43.536;5.048;2022-07-24T11:52:57;15.00;14.00;10.50
69346;PMS5003;56494;43.536;5.048;2022-07-24T11:55:24;16.00;13.60;10.00
69346;PMS5003;56494;43.536;5.048;2022-07-24T11:57:52;18.00;15.00;11.00
69346;PMS5003;56494;43.536;5.048;2022-07-24T12:00:39;17.00;17.00;12.00
69346;PMS5003;56494;43.536;5.048;2022-07-24T12:03:06;18.00;16.00;11.25
69346;PMS5003;56494;43.536;5.048;2022-07-24T12:05:35;18.00;16.50;11.00
69346;PMS5003;56494;43.536;5.048;2022-07-24T12:08:15;18.20;18.20;12.20
69346;PMS5003;56494;43.536;5.048;2022-07-24T12:10:42;17.60;17.40;13.00
69346;PMS5003;56494;43.536;5.048;2022-07-24T12:13:08;15.00;15.00;10.60
69346;PMS5003;56494;43.536;5.048;2022-07-24T12:15:37;15.60;14.00;10.40
69346;PMS5003;56494;43.536;5.048;2022-07-24T12:18:05;19.75;16.00;12.00
69346;PMS5003;56494;43.536;5.048;2022-07-24T12:20:34;16.00;16.00;11.75
69346;PMS5003;56494;43.536;5.048;2022-07-24T12:23:02;14.75;13.25;11.00
69346;PMS5003;56494;43.536;5.048;2022-07-24T12:25:29;17.60;16.00;11.60
69346;PMS5003;56494;43.536;5.048;2022-07-24T12:28:03;17.20;15.20;10.40
69346;PMS5003;56494;43.536;5.048;2022-07-24T12:30:31;13.25;13.25;10.00
69346;PMS5003;56494;43.536;5.048;2022-07-24T12:33:07;16.00;14.60;11.00
69346;PMS5003;56494;43.536;5.048;2022-07-24T12:35:51;18.00;16.00;13.00
69346;PMS5003;56494;43.536;5.048;2022-07-24T12:38:23;14.60;14.00;11.00
69346;PMS5003;56494;43.536;5.048;2022-07-24T12:40:49;14.20;13.20;10.80
69346;PMS5003;56494;43.536;5.048;2022-07-24T12:43:16;17.50;16.00;12.00
69346;PMS5003;56494;43.536;5.048;2022-07-24T12:45:43;27.40;15.00;11.00
69346;PMS5003;56494;43.536;5.048;2022-07-24T12:50:57;18.25;16.00;10.50
69346;PMS5003;56494;43.536;5.048;2022-07-24T12:53:25;23.40;12.80;10.20
69346;PMS5003;56494;43.536;5.048;2022-07-24T12:56:05;15.00;14.40;11.00
69346;PMS5003;56494;43.536;5.048;2022-07-24T13:01:18;15.25;14.50;12.00
69346;PMS5003;56494;43.536;5.048;2022-07-24T13:03:50;17.80;17.80;12.00
69346;PMS5003;56494;43.536;5.048;2022-07-24T13:06:17;13.33;13.33;10.33
69346;PMS5003;56494;43.536;5.048;2022-07-24T13:08:43;13.00;13.00;9.00
69346;PMS5003;56494;43.536;5.048;2022-07-24T13:11:10;15.00;13.00;10.00
69346;PMS5003;56494;43.536;5.048;2022-07-24T13:13:36;12.75;12.75;10.00
69346;PMS5003;56494;43.536;5.048;2022-07-24T13:16:03;17.00;17.00;13.00
69346;PMS5003;56494;43.536;5.048;2022-07-24T13:18:30;16.00;15.67;12.00
69346;PMS5003;56494;43.536;5.048;2022-07-24T13:20:57;17.75;17.75;12.00
69346;PMS5003;56494;43.536;5.048;2022-07-24T13:23:23;15.25;15.00;11.00
69346;PMS5003;56494;43.536;5.048;2022-07-24T13:25:50;18.20;14.80;9.80
69346;PMS5003;56494;43.536;5.048;2022-07-24T13:28:17;15.00;15.00;10.00
69346;PMS5003;56494;43.536;5.048;2022-07-24T13:30:43;16.00;13.50;9.00
69346;PMS5003;56494;43.536;5.048;2022-07-24T13:33:10;17.25;15.25;11.00
69346;PMS5003;56494;43.536;5.048;2022-07-24T13:35:36;14.40;13.80;9.80
69346;PMS5003;56494;43.536;5.048;2022-07-24T13:38:03;12.00;12.00;9.00
69346;PMS5003;56494;43.536;5.048;2022-07-24T13:40:29;18.25;15.25;10.00
69346;PMS5003;56494;43.536;5.048;2022-07-24T13:42:56;19.25;12.50;9.75
69346;PMS5003;56494;43.536;5.048;2022-07-24T13:45:28;13.75;13.25;9.00
69346;PMS5003;56494;43.536;5.048;2022-07-24T13:47:54;12.60;12.60;8.20
69346;PMS5003;56494;43.536;5.048;2022-07-24T13:50:21;12.00;12.00;8.00
69346;PMS5003;56494;43.536;5.048;2022-07-24T13:52:47;11.50;11.50;8.50
69346;PMS5003;56494;43.536;5.048;2022-07-24T13:55:14;16.50;14.00;10.50
69346;PMS5003;56494;43.536;5.048;2022-07-24T13:57:40;11.50;11.50;9.25
69346;PMS5003;56494;43.536;5.048;2022-07-24T14:00:07;12.80;12.00;8.80
69346;PMS5003;56494;43.536;5.048;2022-07-24T14:02:34;13.60;13.00;9.00
69346;PMS5003;56494;43.536;5.048;2022-07-24T14:05:01;19.50;14.25;9.25
69346;PMS5003;56494;43.536;5.048;2022-07-24T14:07:31;12.00;12.00;10.00
69346;PMS5003;56494;43.536;5.048;2022-07-24T14:09:57;13.20;12.00;9.60
69346;PMS5003;56494;43.536;5.048;2022-07-24T14:12:24;13.75;13.75;9.00
69346;PMS5003;56494;43.536;5.048;2022-07-24T14:14:51;14.00;13.00;8.40
69346;PMS5003;56494;43.536;5.048;2022-07-24T14:17:17;14.00;12.50;8.00
69346;PMS5003;56494;43.536;5.048;2022-07-24T14:19:44;11.80;11.00;8.40